Time;durP1;ratioP1;P1;durP2;ratioP2;P2;SDS_P1;SDS_P2;PMS_P1;PMS_P2;Temp;Humidity;BMP_temperature;BMP_pressure;BME280_temperature;BME280_humidity;BME280_pressure;Samples;Min_cycle;Max_cycle;Signal;HPM_P1;HPM_P2
2022/06/22 00:00:08;;;;;;;;;;;;;;;;;;8416589;27;27293;-73
2022/06/22 00:04:08;;;;;;;;;;;;;;;;;;8414949;27;27214;-73
2022/06/22 00:08:08;;;;;;;;;;;;;;;;;;8413784;27;27854;-73
2022/06/22 00:12:08;;;;;;;;;;;;;;;;;;8415300;27;27857;-73
2022/06/22 00:16:08;;;;;;;;;;;;;;;;;;8415531;27;27497;-72
2022/06/22 00:20:09;;;;;;;;;;;;;;;;;;8420920;27;28229;-73
2022/06/22 00:24:09;;;;;;;;;;;;;;;;;;8412785;27;27415;-74
2022/06/22 00:28:09;;;;;;;;;;;;;;;;;;8415069;27;27252;-74
2022/06/22 00:32:09;;;;;;;;;;;;;;;;;;8416164;27;27348;-71
2022/06/22 00:36:09;;;;;;;;;;;;;;;;;;8418503;27;28439;-73
2022/06/22 00:40:09;;;;;;;;;;;;;;;;;;8413801;27;27468;-73
2022/06/22 00:44:09;;;;;;;;;;;;;;;;;;8413656;27;27363;-72
2022/06/22 00:48:10;;;;;;;;;;;;;;;;;;8416412;27;27367;-72
2022/06/22 00:52:10;;;;;;;;;;;;;;;;;;8416485;27;27604;-72
2022/06/22 00:56:10;;;;;;;;;;;;;;;;;;8415369;27;28545;-71
2022/06/22 01:00:13;;;;;;;;;;;;;;;;;;8413023;27;27444;-72
2022/06/22 01:04:13;;;;;;;;;;;;;;;;;;8416786;27;28447;-73
2022/06/22 01:08:13;;;;;;;;;;;;;;;;;;8414343;27;27464;-72
2022/06/22 01:12:16;;;;;;;;;;;;;;;;;;8414989;27;27347;-73
2022/06/22 01:16:16;;;;;;;;;;;;;;;;;;8411418;27;28531;-73
2022/06/22 01:20:17;;;;;;;;;;;;;;;;;;8413481;27;28259;-73
2022/06/22 01:24:17;;;;;;;;;;;;;;;;;;8412779;27;28276;-73
2022/06/22 01:28:17;;;;;;;;;;;;;;;;;;8414828;27;27329;-72
2022/06/22 01:32:19;;;;;;;;;;;;;;;;;;8413706;27;28361;-72
2022/06/22 01:36:19;;;;;;;;;;;;;;;;;;8417764;27;28818;-73
2022/06/22 01:40:20;;;;;;;;;;;;;;;;;;8417890;27;27423;-73
2022/06/22 01:44:20;;;;;;;;;;;;;;;;;;8412361;27;27799;-73
2022/06/22 01:48:20;;;;;;;;;;;;;;;;;;8411917;27;28251;-73
2022/06/22 01:52:21;;;;;;;;;;;;;;;;;;8413824;27;27808;-73
2022/06/22 01:56:21;;;;;;;;;;;;;;;;;;8419905;27;29396;-73
2022/06/22 02:00:21;;;;;;;;;;;;;;;;;;8406666;27;27357;-73
2022/06/22 02:04:22;;;;;;;;;;;;;;;;;;8409412;27;27275;-73
2022/06/22 02:08:22;;;;;;;;;;;;;;;;;;8407973;27;27080;-74
2022/06/22 02:12:26;;;;;;;;;;;;;;;;;;8410098;27;27425;-73
2022/06/22 02:16:26;;;;;;;;;;;;;;;;;;8410842;27;28491;-73
2022/06/22 02:20:27;;;;;;;;;;;;;;;;;;8411303;27;28322;-73
2022/06/22 02:24:27;;;;;;;;;;;;;;;;;;8410374;27;27419;-73
2022/06/22 02:28:29;;;;;;;;;;;;;;;;;;8416637;27;27445;-73
2022/06/22 02:32:29;;;;;;;;;;;;;;;;;;8409128;27;27108;-74
2022/06/22 02:36:30;;;;;;;;;;;;;;;;;;8409256;27;28558;-73
2022/06/22 02:40:30;;;;;;;;;;;;;;;;;;8411047;27;28993;-73
2022/06/22 02:44:31;;;;;;;;;;;;;;;;;;8408541;27;27640;-73
2022/06/22 02:48:32;;;;;;;;;;;;;;;;;;8415145;27;27141;-72
2022/06/22 02:52:32;;;;;;;;;;;;;;;;;;8417572;27;27447;-73
2022/06/22 02:56:32;;;;;;;;;;;;;;;;;;8421474;27;27517;-73
2022/06/22 03:00:32;;;;;;;;;;;;;;;;;;8417791;27;27957;-73
2022/06/22 03:04:33;;;;;;;;;;;;;;;;;;8420887;27;28344;-74
2022/06/22 03:08:33;;;;;;;;;;;;;;;;;;8417346;27;27832;-73
2022/06/22 03:12:33;;;;;;;;;;;;;;;;;;8415094;27;27671;-73
2022/06/22 03:16:33;;;;;;;;;;;;;;;;;;8416642;27;27142;-73
2022/06/22 03:20:33;;;;;;;;;;;;;;;;;;8416225;27;27525;-73
2022/06/22 03:24:33;;;;;;;;;;;;;;;;;;8416605;27;27621;-73
2022/06/22 03:28:36;;;;;;;;;;;;;;;;;;8414676;27;27444;-73
2022/06/22 03:32:37;;;;;;;;;;;;;;;;;;8414097;27;27522;-73
2022/06/22 03:36:37;;;;;;;;;;;;;;;;;;8417723;27;27474;-73
2022/06/22 03:40:37;;;;;;;;;;;;;;;;;;8419525;27;27454;-73
2022/06/22 03:44:37;;;;;;;;;;;;;;;;;;8415300;27;27429;-73
2022/06/22 03:48:37;;;;;;;;;;;;;;;;;;8413086;27;27482;-73
2022/06/22 03:52:37;;;;;;;;;;;;;;;;;;8418553;27;27583;-73
2022/06/22 03:56:37;;;;;;;;;;;;;;;;;;8417739;27;27460;-73
2022/06/22 04:00:38;;;;;;;;;;;;;;;;;;8413833;27;27250;-73
2022/06/22 04:04:38;;;;;;;;;;;;;;;;;;8416032;27;29259;-73
2022/06/22 04:08:38;;;;;;;;;;;;;;;;;;8413386;27;27509;-71
2022/06/22 04:12:38;;;;;;;;;;;;;;;;;;8415353;27;27312;-73
2022/06/22 04:16:41;;;;;;;;;;;;;;;;;;8418135;27;27592;-73
2022/06/22 04:20:50;;;;;;;;;;;;;;;;;;8412299;27;28386;-71
2022/06/22 04:24:50;;;;;;;;;;;;;;;;;;8416696;27;27133;-73
2022/06/22 04:28:51;;;;;;;;;;;;;;;;;;8412318;27;27175;-73
2022/06/22 04:32:51;;;;;;;;;;;;;;;;;;8412142;27;27489;-73
2022/06/22 04:36:51;;;;;;;;;;;;;;;;;;8417696;27;28643;-73
2022/06/22 04:40:53;;;;;;;;;;;;;;;;;;8414939;27;28239;-73
2022/06/22 04:44:54;;;;;;;;;;;;;;;;;;8415896;27;29361;-73
2022/06/22 04:48:54;;;;;;;;;;;;;;;;;;8412645;27;28237;-74
2022/06/22 04:52:55;;;;;;;;;;;;;;;;;;8415239;27;27220;-73
2022/06/22 04:56:57;;;;;;;;;;;;;;;;;;8418221;27;28522;-72
2022/06/22 05:00:58;;;;;;;;;;;;;;;;;;8414179;27;27101;-73
2022/06/22 05:04:58;;;;;;;;;;;;;;;;;;8416250;27;27464;-73
2022/06/22 05:08:58;;;;;;;;;;;;;;;;;;8415416;27;27181;-72
2022/06/22 05:12:58;;;;;;;;;;;;;;;;;;8416657;27;28266;-72
2022/06/22 05:16:58;;;;;;;;;;;;;;;;;;8415929;27;28160;-73
2022/06/22 05:20:58;;;;;;;;;;;;;;;;;;8416001;27;27240;-73
2022/06/22 05:24:59;;;;;;;;;;;;;;;;;;8411574;27;27498;-73
2022/06/22 05:28:59;;;;;;;;;;;;;;;;;;8412911;27;27315;-73
2022/06/22 05:32:59;;;;;;;;;;;;;;;;;;8416952;27;28530;-74
2022/06/22 05:36:59;;;;;;;;;;;;;;;;;;8411334;27;27474;-72
2022/06/22 05:41:04;;;;;;;;;;;;;;;;;;8411550;27;27193;-71
2022/06/22 05:45:04;;;;;;;;;;;;;;;;;;8416027;27;27409;-73
2022/06/22 05:49:04;;;;;;;;;;;;;;;;;;8420041;27;28456;-72
2022/06/22 05:53:05;;;;;;;;;;;;;;;;;;8409571;27;27298;-73
2022/06/22 05:57:05;;;;;;;;;;;;;;;;;;8408313;27;27341;-72
2022/06/22 06:01:05;;;;;;;;;;;;;;;;;;8412639;27;27202;-73
2022/06/22 06:05:05;;;;;;;;;;;;;;;;;;8411068;27;28775;-73
2022/06/22 06:09:05;;;;;;;;;;;;;;;;;;8414371;27;28275;-74
2022/06/22 06:13:05;;;;;;;;;;;;;;;;;;8411745;27;27376;-73
2022/06/22 06:17:06;;;;;;;;;;;;;;;;;;8412348;27;27848;-74
2022/06/22 06:21:06;;;;;;;;;;;;;;;;;;8413617;27;27506;-73
2022/06/22 06:29:25;;;;;;;;;;;;;;;;;;8415853;27;27117;-71
2022/06/22 06:33:25;;;;;;;;;;;;;;;;;;8416844;27;27559;-73
2022/06/22 06:37:25;;;;;;;;;;;;;;;;;;8416540;27;27176;-74
2022/06/22 06:41:25;;;;;;;;;;;;;;;;;;8418611;27;28365;-73
2022/06/22 06:45:25;;;;;;;;;;;;;;;;;;8416931;27;27296;-74
2022/06/22 06:49:25;;;;;;;;;;;;;;;;;;8414130;27;29482;-73
2022/06/22 06:53:26;;;;;;;;;;;;;;;;;;8416149;27;27157;-73
2022/06/22 06:57:27;;;;;;;;;;;;;;;;;;8417332;27;28222;-73
2022/06/22 07:01:27;;;;;;;;;;;;;;;;;;8421722;27;27575;-73
2022/06/22 07:05:27;;;;;;;;;;;;;;;;;;8419634;27;27659;-73
2022/06/22 07:09:29;;;;;;;;;;;;;;;;;;8414075;27;27443;-73
2022/06/22 07:13:30;;;;;;;;;;;;;;;;;;8415559;27;27179;-72
2022/06/22 07:17:31;;;;;;;;;;;;;;;;;;8415801;27;28593;-73
2022/06/22 07:21:32;;;;;;;;;;;;;;;;;;8414104;27;27612;-72
2022/06/22 07:25:32;;;;;;;;;;;;;;;;;;8414705;27;27383;-73
2022/06/22 07:29:32;;;;;;;;;;;;;;;;;;8414550;27;27108;-72
2022/06/22 07:33:33;;;;;;;;;;;;;;;;;;8415760;27;27235;-73
2022/06/22 07:37:33;;;;;;;;;;;;;;;;;;8416972;27;27114;-72
2022/06/22 07:41:33;;;;;;;;;;;;;;;;;;8417318;27;27401;-72
2022/06/22 07:45:33;;;;;;;;;;;;;;;;;;8415199;27;27789;-72
2022/06/22 07:49:33;;;;;;;;;;;;;;;;;;8418896;27;27372;-72
2022/06/22 07:53:33;;;;;;;;;;;;;;;;;;8415940;27;27316;-73
2022/06/22 07:57:34;;;;;;;;;;;;;;;;;;8416708;27;27114;-72
2022/06/22 08:01:35;;;;;;;;;;;;;;;;;;8420683;27;28396;-72
2022/06/22 08:05:35;;;;;;;;;;;;;;;;;;8415932;27;27153;-72
2022/06/22 08:09:35;;;;;;;;;;;;;;;;;;8416250;27;27202;-72
2022/06/22 08:13:35;;;;;;;;;;;;;;;;;;8412438;27;27473;-73
2022/06/22 08:17:35;;;;;;;;;;;;;;;;;;8413186;27;27207;-74
2022/06/22 08:21:36;;;;;;;;;;;;;;;;;;8416148;27;28033;-73
2022/06/22 08:25:36;;;;;;;;;;;;;;;;;;8410559;27;27713;-73
2022/06/22 08:29:37;;;;;;;;;;;;;;;;;;8416181;27;29054;-73
2022/06/22 08:33:37;;;;;;;;;;;;;;;;;;8412904;27;27419;-73
2022/06/22 08:37:37;;;;;;;;;;;;;;;;;;8420211;27;28369;-74
2022/06/22 08:41:38;;;;;;;;;;;;;;;;;;8411638;27;27394;-74
2022/06/22 08:45:38;;;;;;;;;;;;;;;;;;8414841;27;27301;-74
2022/06/22 08:49:38;;;;;;;;;;;;;;;;;;8417988;27;27397;-74
2022/06/22 08:53:38;;;;;;;;;;;;;;;;;;8416770;27;28291;-74
2022/06/22 08:57:38;;;;;;;;;;;;;;;;;;8415439;27;28160;-73
2022/06/22 09:01:40;;;;;;;;;;;;;;;;;;8413722;27;28239;-73
2022/06/22 09:05:40;;;;;;;;;;;;;;;;;;8413289;27;27527;-73
2022/06/22 09:09:42;;;;;;;;;;;;;;;;;;8410575;27;27381;-73
2022/06/22 09:13:42;;;;;;;;;;;;;;;;;;8411823;27;27492;-71
2022/06/22 09:17:42;;;;;;;;;;;;;;;;;;8411821;27;27298;-72
2022/06/22 09:21:42;;;;;;;;;;;;;;;;;;8414966;27;28160;-74
2022/06/22 09:25:45;;;;;;;;;;;;;;;;;;8413537;27;27243;-73
2022/06/22 09:29:45;;;;;;;;;;;;;;;;;;8414636;27;29474;-74
2022/06/22 09:33:45;;;;;;;;;;;;;;;;;;8411340;27;27705;-74
2022/06/22 09:37:45;;;;;;;;;;;;;;;;;;8408982;27;28382;-72
2022/06/22 09:41:46;;;;;;;;;;;;;;;;;;8410137;27;27459;-72
2022/06/22 09:45:46;;;;;;;;;;;;;;;;;;8411454;27;27455;-74
2022/06/22 09:49:46;;;;;;;;;;;;;;;;;;8412754;27;28339;-73
2022/06/22 09:53:46;;;;;;;;;;;;;;;;;;8408500;27;28349;-74
2022/06/22 09:57:46;;;;;;;;;;;;;;;;;;8413967;27;28359;-73
2022/06/22 10:01:47;;;;;;;;;;;;;;;;;;8408896;27;27933;-73
2022/06/22 10:05:48;;;;;;;;;;;;;;;;;;8414834;27;27433;-74
2022/06/22 10:09:48;;;;;;;;;;;;;;;;;;8407856;27;29179;-73
2022/06/22 10:13:48;;;;;;;;;;;;;;;;;;8409541;27;27319;-73
2022/06/22 10:17:48;;;;;;;;;;;;;;;;;;8413629;27;28253;-73
2022/06/22 10:21:48;;;;;;;;;;;;;;;;;;8409641;27;28708;-74
2022/06/22 10:25:48;;;;;;;;;;;;;;;;;;8410861;27;29230;-74
2022/06/22 10:29:49;;;;;;;;;;;;;;;;;;8408476;27;27478;-73
2022/06/22 10:33:49;;;;;;;;;;;;;;;;;;8403416;27;27387;-74
2022/06/22 10:37:49;;;;;;;;;;;;;;;;;;8405225;27;27522;-75
2022/06/22 10:46:08;;;;;;;;;;;;;;;;;;8408804;27;27712;-74
2022/06/22 10:50:08;;;;;;;;;;;;;;;;;;8414989;27;27243;-75
2022/06/22 10:54:08;;;;;;;;;;;;;;;;;;8409717;27;27405;-74
2022/06/22 10:58:08;;;;;;;;;;;;;;;;;;8411308;27;29646;-74
2022/06/22 11:02:11;;;;;;;;;;;;;;;;;;8408124;27;27934;-74
2022/06/22 11:06:12;;;;;;;;;;;;;;;;;;8412019;27;27280;-74
2022/06/22 11:10:12;;;;;;;;;;;;;;;;;;8414779;27;27898;-73
2022/06/22 11:14:12;;;;;;;;;;;;;;;;;;8417527;27;27373;-74
2022/06/22 11:18:12;;;;;;;;;;;;;;;;;;8416558;27;29465;-73
2022/06/22 11:22:15;;;;;;;;;;;;;;;;;;8418663;27;29185;-73
2022/06/22 11:30:51;;;;;;;;;;;;;;;;;;8415758;27;27480;-73
2022/06/22 11:34:51;;;;;;;;;;;;;;;;;;8417758;27;27724;-73
2022/06/22 11:38:51;;;;;;;;;;;;;;;;;;8416495;27;27831;-74
2022/06/22 11:42:51;;;;;;;;;;;;;;;;;;8414742;27;27918;-73
2022/06/22 11:46:52;;;;;;;;;;;;;;;;;;8420102;27;28148;-73
2022/06/22 11:50:52;;;;;;;;;;;;;;;;;;8417801;27;27457;-73
2022/06/22 11:54:52;;;;;;;;;;;;;;;;;;8417058;27;28239;-73
2022/06/22 11:58:52;;;;;;;;;;;;;;;;;;8416527;27;27565;-73
2022/06/22 12:02:52;;;;;;;;;;;;;;;;;;8416597;27;27681;-74
2022/06/22 12:06:55;;;;;;;;;;;;;;;;;;8414531;27;27945;-73
2022/06/22 12:10:55;;;;;;;;;;;;;;;;;;8411342;27;27543;-74
2022/06/22 12:15:12;;;;;;;;;;;;;;;;;;8415607;27;27687;-73
2022/06/22 12:19:12;;;;;;;;;;;;;;;;;;8419216;27;28306;-73
2022/06/22 12:23:12;;;;;;;;;;;;;;;;;;8416848;27;27497;-73
2022/06/22 12:27:12;;;;;;;;;;;;;;;;;;8418393;27;28245;-73
2022/06/22 12:31:12;;;;;;;;;;;;;;;;;;8419117;27;27426;-72
2022/06/22 12:35:13;;;;;;;;;;;;;;;;;;8416754;27;27552;-74
2022/06/22 12:39:13;;;;;;;;;;;;;;;;;;8417286;27;27379;-72
2022/06/22 12:43:13;;;;;;;;;;;;;;;;;;8414444;27;28297;-73
2022/06/22 12:47:14;;;;;;;;;;;;;;;;;;8418746;27;27354;-73
2022/06/22 12:51:14;;;;;;;;;;;;;;;;;;8409984;27;27867;-74
2022/06/22 12:55:14;;;;;;;;;;;;;;;;;;8414573;27;29251;-73
2022/06/22 12:59:14;;;;;;;;;;;;;;;;;;8412568;27;27237;-73
2022/06/22 13:03:14;;;;;;;;;;;;;;;;;;8413710;27;27218;-73
2022/06/22 13:07:14;;;;;;;;;;;;;;;;;;8417777;27;28289;-74
2022/06/22 13:11:15;;;;;;;;;;;;;;;;;;8411108;27;27236;-73
2022/06/22 13:15:15;;;;;;;;;;;;;;;;;;8409626;27;27137;-73
2022/06/22 13:19:15;;;;;;;;;;;;;;;;;;8410834;27;27240;-73
2022/06/22 13:23:15;;;;;;;;;;;;;;;;;;8416324;27;27653;-73
2022/06/22 13:27:15;;;;;;;;;;;;;;;;;;8414667;27;28070;-73
2022/06/22 13:31:15;;;;;;;;;;;;;;;;;;8411192;27;27396;-74
2022/06/22 13:35:16;;;;;;;;;;;;;;;;;;8412814;27;27452;-74
2022/06/22 13:39:16;;;;;;;;;;;;;;;;;;8416671;27;29020;-74
2022/06/22 13:43:17;;;;;;;;;;;;;;;;;;8414191;27;27202;-73
2022/06/22 13:47:17;;;;;;;;;;;;;;;;;;8412473;27;27446;-73
2022/06/22 13:51:24;;;;;;;;;;;;;;;;;;8409420;27;27496;-73
2022/06/22 13:55:24;;;;;;;;;;;;;;;;;;8408485;27;27576;-74
2022/06/22 13:59:24;;;;;;;;;;;;;;;;;;8408663;27;27744;-73
2022/06/22 14:03:24;;;;;;;;;;;;;;;;;;8410664;27;27620;-71
2022/06/22 14:07:24;;;;;;;;;;;;;;;;;;8409838;27;27550;-73
2022/06/22 14:11:25;;;;;;;;;;;;;;;;;;8415626;27;27289;-71
2022/06/22 14:15:28;;;;;;;;;;;;;;;;;;8411655;27;27435;-72
2022/06/22 14:19:30;;;;;;;;;;;;;;;;;;8413778;27;28403;-73
2022/06/22 14:23:30;;;;;;;;;;;;;;;;;;8410643;27;28736;-73
2022/06/22 14:27:31;;;;;;;;;;;;;;;;;;8404504;27;27297;-73
2022/06/22 14:31:31;;;;;;;;;;;;;;;;;;8414581;27;28269;-71
2022/06/22 14:35:31;;;;;;;;;;;;;;;;;;8415233;27;28490;-72
2022/06/22 14:39:31;;;;;;;;;;;;;;;;;;8416913;27;29263;-73
2022/06/22 14:43:31;;;;;;;;;;;;;;;;;;8406339;27;27474;-73
2022/06/22 14:47:31;;;;;;;;;;;;;;;;;;8416111;27;27243;-73
2022/06/22 14:51:31;;;;;;;;;;;;;;;;;;8417701;27;27351;-74
2022/06/22 14:55:32;;;;;;;;;;;;;;;;;;8410847;27;27616;-74
2022/06/22 14:59:32;;;;;;;;;;;;;;;;;;8400436;27;27338;-74
2022/06/22 15:03:32;;;;;;;;;;;;;;;;;;8405014;27;27731;-72
2022/06/22 15:07:32;;;;;;;;;;;;;;;;;;8411806;27;27585;-73
2022/06/22 15:15:51;;;;;;;;;;;;;;;;;;8404956;27;27226;-73
2022/06/22 15:19:51;;;;;;;;;;;;;;;;;;8409394;27;27791;-73
2022/06/22 15:23:51;;;;;;;;;;;;;;;;;;8410888;27;28179;-73
2022/06/22 15:27:51;;;;;;;;;;;;;;;;;;8412362;27;27670;-73
2022/06/22 15:31:52;;;;;;;;;;;;;;;;;;8407059;27;27728;-74
2022/06/22 15:35:52;;;;;;;;;;;;;;;;;;8403409;27;28085;-72
2022/06/22 15:39:53;;;;;;;;;;;;;;;;;;8407420;27;28361;-71
2022/06/22 15:43:53;;;;;;;;;;;;;;;;;;8400102;27;27332;-73
2022/06/22 15:47:53;;;;;;;;;;;;;;;;;;8406636;27;28656;-73
2022/06/22 15:51:53;;;;;;;;;;;;;;;;;;8406989;27;28351;-71
2022/06/22 15:55:53;;;;;;;;;;;;;;;;;;8408262;27;27436;-72
2022/06/22 15:59:53;;;;;;;;;;;;;;;;;;8408652;27;28356;-71
2022/06/22 16:03:54;;;;;;;;;;;;;;;;;;8397520;27;27651;-73
2022/06/22 16:07:54;;;;;;;;;;;;;;;;;;8405060;27;28230;-74
2022/06/22 16:16:12;;;;;;;;;;;;;;;;;;8406921;27;27699;-72
2022/06/22 16:20:13;;;;;;;;;;;;;;;;;;8406518;27;27523;-71
2022/06/22 16:24:13;;;;;;;;;;;;;;;;;;8402978;27;27814;-71
2022/06/22 16:28:13;;;;;;;;;;;;;;;;;;8410600;27;28293;-72
2022/06/22 16:32:13;;;;;;;;;;;;;;;;;;8404308;27;27894;-71
2022/06/22 16:36:13;;;;;;;;;;;;;;;;;;8403019;27;27537;-72
2022/06/22 16:40:14;;;;;;;;;;;;;;;;;;8411789;27;28307;-72
2022/06/22 16:44:14;;;;;;;;;;;;;;;;;;8408799;27;27542;-73
2022/06/22 16:48:14;;;;;;;;;;;;;;;;;;8403907;27;27694;-72
2022/06/22 16:52:15;;;;;;;;;;;;;;;;;;8402114;27;27667;-72
2022/06/22 16:56:16;;;;;;;;;;;;;;;;;;8404412;27;27734;-73
2022/06/22 17:00:16;;;;;;;;;;;;;;;;;;8401058;27;27910;-72
2022/06/22 17:04:16;;;;;;;;;;;;;;;;;;8405422;27;30262;-73
2022/06/22 17:08:16;;;;;;;;;;;;;;;;;;8402476;27;28733;-72
2022/06/22 17:12:16;;;;;;;;;;;;;;;;;;8400059;27;27612;-74
2022/06/22 17:16:16;;;;;;;;;;;;;;;;;;8403500;27;27238;-74
2022/06/22 17:20:17;;;;;;;;;;;;;;;;;;8402913;27;27290;-73
2022/06/22 17:24:17;;;;;;;;;;;;;;;;;;8403159;27;27535;-74
2022/06/22 17:28:17;;;;;;;;;;;;;;;;;;8401973;27;27323;-74
2022/06/22 17:32:17;;;;;;;;;;;;;;;;;;8396461;27;28240;-74
2022/06/22 17:36:17;;;;;;;;;;;;;;;;;;8406986;27;27597;-72
2022/06/22 17:40:17;;;;;;;;;;;;;;;;;;8403549;27;27521;-74
2022/06/22 17:44:18;;;;;;;;;;;;;;;;;;8405069;27;28370;-73
2022/06/22 17:48:18;;;;;;;;;;;;;;;;;;8403407;27;27740;-73
2022/06/22 17:52:18;;;;;;;;;;;;;;;;;;8400322;27;28050;-73
2022/06/22 17:56:18;;;;;;;;;;;;;;;;;;8406302;27;28234;-75
2022/06/22 18:00:18;;;;;;;;;;;;;;;;;;8405288;27;27308;-75
2022/06/22 18:04:18;;;;;;;;;;;;;;;;;;8405906;27;27982;-76
2022/06/22 18:08:19;;;;;;;;;;;;;;;;;;8406680;27;27522;-75
2022/06/22 18:12:19;;;;;;;;;;;;;;;;;;8399397;27;27531;-74
2022/06/22 18:16:19;;;;;;;;;;;;;;;;;;8406490;27;28330;-75
2022/06/22 18:20:19;;;;;;;;;;;;;;;;;;8408295;27;27851;-73
2022/06/22 18:24:19;;;;;;;;;;;;;;;;;;8411382;27;28576;-74
2022/06/22 18:28:19;;;;;;;;;;;;;;;;;;8407414;27;27679;-74
2022/06/22 18:32:20;;;;;;;;;;;;;;;;;;8404587;27;29502;-74
2022/06/22 18:36:20;;;;;;;;;;;;;;;;;;8404571;27;29233;-74
2022/06/22 18:44:39;;;;;;;;;;;;;;;;;;8404538;27;27333;-73
2022/06/22 18:48:39;;;;;;;;;;;;;;;;;;8406822;27;28900;-73
2022/06/22 18:52:39;;;;;;;;;;;;;;;;;;8407816;27;28414;-73
2022/06/22 18:56:39;;;;;;;;;;;;;;;;;;8418245;27;28300;-74
2022/06/22 19:00:40;;;;;;;;;;;;;;;;;;8406355;27;27312;-73
2022/06/22 19:04:40;;;;;;;;;;;;;;;;;;8413725;27;27641;-73
2022/06/22 19:08:40;;;;;;;;;;;;;;;;;;8408614;27;27852;-73
2022/06/22 19:12:40;;;;;;;;;;;;;;;;;;8407818;27;27614;-74
2022/06/22 19:16:40;;;;;;;;;;;;;;;;;;8414872;27;27116;-74
2022/06/22 19:20:41;;;;;;;;;;;;;;;;;;8411470;27;28301;-74
2022/06/22 19:24:41;;;;;;;;;;;;;;;;;;8408517;27;27912;-73
2022/06/22 19:28:41;;;;;;;;;;;;;;;;;;8405913;27;27605;-74
2022/06/22 19:32:41;;;;;;;;;;;;;;;;;;8402538;27;28245;-74
2022/06/22 19:36:42;;;;;;;;;;;;;;;;;;8410330;27;27750;-74
2022/06/22 19:40:42;;;;;;;;;;;;;;;;;;8407270;27;27130;-74
2022/06/22 19:44:42;;;;;;;;;;;;;;;;;;8404265;27;28296;-74
2022/06/22 19:48:42;;;;;;;;;;;;;;;;;;8405366;27;27541;-75
2022/06/22 19:52:42;;;;;;;;;;;;;;;;;;8406452;27;27273;-74
2022/06/22 19:56:42;;;;;;;;;;;;;;;;;;8407180;27;27660;-74
2022/06/22 20:00:42;;;;;;;;;;;;;;;;;;8403831;27;27957;-73
2022/06/22 20:04:43;;;;;;;;;;;;;;;;;;8400629;27;28451;-73
2022/06/22 20:08:43;;;;;;;;;;;;;;;;;;8409233;27;28349;-73
2022/06/22 20:12:43;;;;;;;;;;;;;;;;;;8400487;27;27878;-73
2022/06/22 20:16:43;;;;;;;;;;;;;;;;;;8404728;27;28299;-73
2022/06/22 20:20:43;;;;;;;;;;;;;;;;;;8409106;27;27734;-73
2022/06/22 20:24:45;;;;;;;;;;;;;;;;;;8411236;27;29036;-73
2022/06/22 20:28:46;;;;;;;;;;;;;;;;;;8411057;27;27437;-74
2022/06/22 20:32:46;;;;;;;;;;;;;;;;;;8402886;27;27645;-73
2022/06/22 20:36:46;;;;;;;;;;;;;;;;;;8403990;27;28597;-73
2022/06/22 20:40:46;;;;;;;;;;;;;;;;;;8401112;27;28140;-73
2022/06/22 20:44:50;;;;;;;;;;;;;;;;;;8412615;27;28377;-73
2022/06/22 20:48:50;;;;;;;;;;;;;;;;;;8415147;27;27147;-73
2022/06/22 20:52:50;;;;;;;;;;;;;;;;;;8406898;27;27184;-73
2022/06/22 20:56:50;;;;;;;;;;;;;;;;;;8408966;27;27475;-73
2022/06/22 21:00:50;;;;;;;;;;;;;;;;;;8406792;27;27472;-73
2022/06/22 21:04:51;;;;;;;;;;;;;;;;;;8407324;27;27466;-75
2022/06/22 21:08:51;;;;;;;;;;;;;;;;;;8400513;27;28666;-74
2022/06/22 21:12:52;;;;;;;;;;;;;;;;;;8398148;27;27810;-73
2022/06/22 21:16:52;;;;;;;;;;;;;;;;;;8402127;27;27413;-74
2022/06/22 21:20:52;;;;;;;;;;;;;;;;;;8401809;27;28359;-73
2022/06/22 21:24:52;;;;;;;;;;;;;;;;;;8400000;27;28142;-73
2022/06/22 21:33:14;;;;;;;;;;;;;;;;;;8407680;27;27321;-73
2022/06/22 21:37:14;;;;;;;;;;;;;;;;;;8407421;27;28361;-73
2022/06/22 21:41:14;;;;;;;;;;;;;;;;;;8408217;27;27524;-73
2022/06/22 21:45:15;;;;;;;;;;;;;;;;;;8405950;27;27218;-72
2022/06/22 21:49:15;;;;;;;;;;;;;;;;;;8407843;27;28699;-73
2022/06/22 21:53:16;;;;;;;;;;;;;;;;;;8406390;27;27259;-73
2022/06/22 21:57:16;;;;;;;;;;;;;;;;;;8411620;27;27491;-72
2022/06/22 22:01:16;;;;;;;;;;;;;;;;;;8404071;27;27818;-73
2022/06/22 22:05:16;;;;;;;;;;;;;;;;;;8402263;27;27452;-73
2022/06/22 22:09:16;;;;;;;;;;;;;;;;;;8405250;27;27446;-73
2022/06/22 22:13:16;;;;;;;;;;;;;;;;;;8403395;27;28481;-73
2022/06/22 22:17:18;;;;;;;;;;;;;;;;;;8407413;27;47671;-73
2022/06/22 22:21:19;;;;;;;;;;;;;;;;;;8409794;27;27435;-73
2022/06/22 22:25:19;;;;;;;;;;;;;;;;;;8409611;27;28177;-72
2022/06/22 22:29:19;;;;;;;;;;;;;;;;;;8408178;27;28915;-73
2022/06/22 22:33:19;;;;;;;;;;;;;;;;;;8409157;27;27377;-72
2022/06/22 22:37:19;;;;;;;;;;;;;;;;;;8409309;27;27794;-73
2022/06/22 22:41:20;;;;;;;;;;;;;;;;;;8410871;27;27510;-73
2022/06/22 22:45:20;;;;;;;;;;;;;;;;;;8408806;27;27683;-73
2022/06/22 22:49:20;;;;;;;;;;;;;;;;;;8415165;27;27477;-73
2022/06/22 22:53:21;;;;;;;;;;;;;;;;;;8410406;27;27331;-73
2022/06/22 22:57:21;;;;;;;;;;;;;;;;;;8410230;27;27292;-73
2022/06/22 23:01:21;;;;;;;;;;;;;;;;;;8411662;27;27575;-73
2022/06/22 23:05:21;;;;;;;;;;;;;;;;;;8413077;27;27280;-73
2022/06/22 23:09:21;;;;;;;;;;;;;;;;;;8411521;27;27394;-73
2022/06/22 23:13:21;;;;;;;;;;;;;;;;;;8414190;27;28104;-73
2022/06/22 23:17:26;;;;;;;;;;;;;;;;;;8416940;27;28289;-73
2022/06/22 23:21:26;;;;;;;;;;;;;;;;;;8417321;27;27316;-72
2022/06/22 23:25:26;;;;;;;;;;;;;;;;;;8410736;27;27421;-73
2022/06/22 23:29:26;;;;;;;;;;;;;;;;;;8413470;27;27393;-73
2022/06/22 23:33:26;;;;;;;;;;;;;;;;;;8418396;27;27516;-73
2022/06/22 23:37:26;;;;;;;;;;;;;;;;;;8413167;27;28468;-73
2022/06/22 23:41:28;;;;;;;;;;;;;;;;;;8419359;27;28036;-73
2022/06/22 23:45:28;;;;;;;;;;;;;;;;;;8419669;27;28660;-72
2022/06/22 23:49:28;;;;;;;;;;;;;;;;;;8417017;27;28225;-72
2022/06/22 23:53:28;;;;;;;;;;;;;;;;;;8411889;27;27440;-73
2022/06/22 23:57:28;;;;;;;;;;;;;;;;;;8412505;27;28272;-73
